sensor_id;sensor_type;location;lat;lon;timestamp;P1;durP1;ratioP1;P2;durP2;ratioP2
17201;SDS011;8717;53.588;10.176;2023-02-03T00:01:53;6.70;;;2.63;;
17201;SDS011;8717;53.588;10.176;2023-02-03T00:04:20;4.83;;;2.40;;
17201;SDS011;8717;53.588;10.176;2023-02-03T00:06:46;6.57;;;2.77;;
17201;SDS011;8717;53.588;10.176;2023-02-03T00:09:14;5.27;;;2.80;;
17201;SDS011;8717;53.588;10.176;2023-02-03T00:11:43;5.17;;;3.17;;
17201;SDS011;8717;53.588;10.176;2023-02-03T00:14:10;41.83;;;5.00;;
17201;SDS011;8717;53.588;10.176;2023-02-03T00:16:36;28.07;;;4.20;;
17201;SDS011;8717;53.588;10.176;2023-02-03T00:19:03;4.77;;;3.00;;
17201;SDS011;8717;53.588;10.176;2023-02-03T00:21:30;43.17;;;5.50;;
17201;SDS011;8717;53.588;10.176;2023-02-03T00:23:57;13.13;;;3.50;;
17201;SDS011;8717;53.588;10.176;2023-02-03T00:26:24;18.93;;;4.20;;
17201;SDS011;8717;53.588;10.176;2023-02-03T00:28:54;5.50;;;2.93;;
17201;SDS011;8717;53.588;10.176;2023-02-03T00:31:22;8.23;;;3.60;;
17201;SDS011;8717;53.588;10.176;2023-02-03T00:33:52;27.73;;;4.23;;
17201;SDS011;8717;53.588;10.176;2023-02-03T00:36:20;4.17;;;3.43;;
17201;SDS011;8717;53.588;10.176;2023-02-03T00:38:47;14.03;;;4.73;;
17201;SDS011;8717;53.588;10.176;2023-02-03T00:41:14;22.33;;;5.30;;
17201;SDS011;8717;53.588;10.176;2023-02-03T00:43:41;14.93;;;5.27;;
17201;SDS011;8717;53.588;10.176;2023-02-03T00:46:11;26.47;;;6.37;;
17201;SDS011;8717;53.588;10.176;2023-02-03T00:48:38;7.47;;;5.07;;
17201;SDS011;8717;53.588;10.176;2023-02-03T00:51:05;50.67;;;8.67;;
17201;SDS011;8717;53.588;10.176;2023-02-03T00:53:32;8.47;;;6.30;;
17201;SDS011;8717;53.588;10.176;2023-02-03T00:55:59;9.27;;;6.80;;
17201;SDS011;8717;53.588;10.176;2023-02-03T00:58:26;8.77;;;6.53;;
17201;SDS011;8717;53.588;10.176;2023-02-03T01:00:54;8.57;;;6.60;;
17201;SDS011;8717;53.588;10.176;2023-02-03T01:03:22;8.40;;;6.70;;
17201;SDS011;8717;53.588;10.176;2023-02-03T01:05:49;9.80;;;7.20;;
17201;SDS011;8717;53.588;10.176;2023-02-03T01:08:18;13.13;;;7.50;;
17201;SDS011;8717;53.588;10.176;2023-02-03T01:10:45;9.57;;;7.53;;
17201;SDS011;8717;53.588;10.176;2023-02-03T01:13:12;10.93;;;7.70;;
17201;SDS011;8717;53.588;10.176;2023-02-03T01:15:44;10.97;;;8.03;;
17201;SDS011;8717;53.588;10.176;2023-02-03T01:18:11;12.67;;;8.40;;
17201;SDS011;8717;53.588;10.176;2023-02-03T01:20:40;13.53;;;8.27;;
17201;SDS011;8717;53.588;10.176;2023-02-03T01:23:06;11.83;;;7.27;;
17201;SDS011;8717;53.588;10.176;2023-02-03T01:25:33;14.77;;;8.40;;
17201;SDS011;8717;53.588;10.176;2023-02-03T01:28:00;13.03;;;7.80;;
17201;SDS011;8717;53.588;10.176;2023-02-03T01:30:27;13.23;;;8.20;;
17201;SDS011;8717;53.588;10.176;2023-02-03T01:32:54;11.90;;;7.57;;
17201;SDS011;8717;53.588;10.176;2023-02-03T01:35:20;13.93;;;7.83;;
17201;SDS011;8717;53.588;10.176;2023-02-03T01:37:48;8.90;;;7.70;;
17201;SDS011;8717;53.588;10.176;2023-02-03T01:40:15;17.60;;;7.83;;
17201;SDS011;8717;53.588;10.176;2023-02-03T01:42:42;10.20;;;7.53;;
17201;SDS011;8717;53.588;10.176;2023-02-03T01:45:09;12.53;;;7.23;;
17201;SDS011;8717;53.588;10.176;2023-02-03T01:47:37;13.40;;;7.83;;
17201;SDS011;8717;53.588;10.176;2023-02-03T01:50:11;13.80;;;6.60;;
17201;SDS011;8717;53.588;10.176;2023-02-03T01:52:42;14.53;;;6.83;;
17201;SDS011;8717;53.588;10.176;2023-02-03T01:55:15;13.10;;;7.00;;
17201;SDS011;8717;53.588;10.176;2023-02-03T01:57:46;12.73;;;6.53;;
17201;SDS011;8717;53.588;10.176;2023-02-03T02:00:16;9.97;;;6.70;;
17201;SDS011;8717;53.588;10.176;2023-02-03T02:02:44;11.77;;;6.40;;
17201;SDS011;8717;53.588;10.176;2023-02-03T02:05:13;13.67;;;5.90;;
17201;SDS011;8717;53.588;10.176;2023-02-03T02:07:45;11.93;;;5.93;;
17201;SDS011;8717;53.588;10.176;2023-02-03T02:10:14;11.30;;;5.90;;
17201;SDS011;8717;53.588;10.176;2023-02-03T02:12:41;12.73;;;6.10;;
17201;SDS011;8717;53.588;10.176;2023-02-03T02:15:08;13.37;;;5.90;;
17201;SDS011;8717;53.588;10.176;2023-02-03T02:20:52;9.43;;;5.60;;
17201;SDS011;8717;53.588;10.176;2023-02-03T02:23:57;7.50;;;4.93;;
17201;SDS011;8717;53.588;10.176;2023-02-03T02:29:40;9.60;;;5.50;;
17201;SDS011;8717;53.588;10.176;2023-02-03T02:32:33;10.30;;;5.17;;
17201;SDS011;8717;53.588;10.176;2023-02-03T02:35:14;10.33;;;4.90;;
17201;SDS011;8717;53.588;10.176;2023-02-03T02:37:51;9.80;;;5.40;;
17201;SDS011;8717;53.588;10.176;2023-02-03T02:40:27;7.90;;;5.10;;
17201;SDS011;8717;53.588;10.176;2023-02-03T02:43:01;8.80;;;4.80;;
17201;SDS011;8717;53.588;10.176;2023-02-03T02:45:37;7.90;;;4.90;;
17201;SDS011;8717;53.588;10.176;2023-02-03T02:48:12;9.63;;;4.87;;
17201;SDS011;8717;53.588;10.176;2023-02-03T02:50:46;7.73;;;5.00;;
17201;SDS011;8717;53.588;10.176;2023-02-03T02:53:15;8.50;;;4.97;;
17201;SDS011;8717;53.588;10.176;2023-02-03T02:55:47;9.43;;;4.97;;
17201;SDS011;8717;53.588;10.176;2023-02-03T02:58:15;10.90;;;5.17;;
17201;SDS011;8717;53.588;10.176;2023-02-03T03:00:44;9.93;;;5.20;;
17201;SDS011;8717;53.588;10.176;2023-02-03T03:03:14;8.97;;;5.10;;
17201;SDS011;8717;53.588;10.176;2023-02-03T03:05:43;7.57;;;4.73;;
17201;SDS011;8717;53.588;10.176;2023-02-03T03:08:16;12.50;;;5.33;;
17201;SDS011;8717;53.588;10.176;2023-02-03T03:10:48;7.17;;;4.47;;
17201;SDS011;8717;53.588;10.176;2023-02-03T03:13:20;8.03;;;4.40;;
17201;SDS011;8717;53.588;10.176;2023-02-03T03:15:50;10.47;;;4.73;;
17201;SDS011;8717;53.588;10.176;2023-02-03T03:18:20;9.93;;;4.70;;
17201;SDS011;8717;53.588;10.176;2023-02-03T03:20:50;10.80;;;4.10;;
17201;SDS011;8717;53.588;10.176;2023-02-03T03:23:21;9.17;;;4.23;;
17201;SDS011;8717;53.588;10.176;2023-02-03T03:25:53;10.90;;;4.33;;
17201;SDS011;8717;53.588;10.176;2023-02-03T03:28:26;7.03;;;4.13;;
17201;SDS011;8717;53.588;10.176;2023-02-03T03:31:00;8.63;;;3.80;;
17201;SDS011;8717;53.588;10.176;2023-02-03T03:33:28;9.07;;;3.73;;
17201;SDS011;8717;53.588;10.176;2023-02-03T03:35:56;7.97;;;3.53;;
17201;SDS011;8717;53.588;10.176;2023-02-03T03:38:29;7.77;;;3.40;;
17201;SDS011;8717;53.588;10.176;2023-02-03T03:41:04;8.47;;;3.53;;
17201;SDS011;8717;53.588;10.176;2023-02-03T03:43:34;7.13;;;3.13;;
17201;SDS011;8717;53.588;10.176;2023-02-03T03:46:07;8.47;;;3.30;;
17201;SDS011;8717;53.588;10.176;2023-02-03T03:48:40;8.43;;;3.70;;
17201;SDS011;8717;53.588;10.176;2023-02-03T03:51:12;6.53;;;2.93;;
17201;SDS011;8717;53.588;10.176;2023-02-03T03:53:44;7.63;;;3.20;;
17201;SDS011;8717;53.588;10.176;2023-02-03T03:56:20;9.03;;;3.03;;
17201;SDS011;8717;53.588;10.176;2023-02-03T03:58:51;9.90;;;3.70;;
17201;SDS011;8717;53.588;10.176;2023-02-03T04:01:19;6.27;;;2.93;;
17201;SDS011;8717;53.588;10.176;2023-02-03T04:03:51;9.87;;;2.60;;
17201;SDS011;8717;53.588;10.176;2023-02-03T04:06:21;8.13;;;2.90;;
17201;SDS011;8717;53.588;10.176;2023-02-03T04:08:48;7.60;;;3.73;;
17201;SDS011;8717;53.588;10.176;2023-02-03T04:11:15;5.93;;;3.33;;
17201;SDS011;8717;53.588;10.176;2023-02-03T04:13:56;5.23;;;2.87;;
17201;SDS011;8717;53.588;10.176;2023-02-03T04:16:23;7.27;;;3.60;;
17201;SDS011;8717;53.588;10.176;2023-02-03T04:18:52;7.03;;;3.20;;
17201;SDS011;8717;53.588;10.176;2023-02-03T04:21:19;9.07;;;3.83;;
17201;SDS011;8717;53.588;10.176;2023-02-03T04:23:46;6.33;;;3.57;;
17201;SDS011;8717;53.588;10.176;2023-02-03T04:26:12;8.13;;;3.40;;
17201;SDS011;8717;53.588;10.176;2023-02-03T04:28:39;7.70;;;3.30;;
17201;SDS011;8717;53.588;10.176;2023-02-03T04:31:06;7.53;;;3.60;;
17201;SDS011;8717;53.588;10.176;2023-02-03T04:33:33;8.83;;;3.70;;
17201;SDS011;8717;53.588;10.176;2023-02-03T04:36:01;6.73;;;3.73;;
17201;SDS011;8717;53.588;10.176;2023-02-03T04:38:27;5.40;;;3.60;;
17201;SDS011;8717;53.588;10.176;2023-02-03T04:40:54;6.67;;;4.03;;
17201;SDS011;8717;53.588;10.176;2023-02-03T04:43:21;5.80;;;3.63;;
17201;SDS011;8717;53.588;10.176;2023-02-03T04:45:48;5.67;;;3.50;;
17201;SDS011;8717;53.588;10.176;2023-02-03T04:48:14;4.33;;;3.00;;
17201;SDS011;8717;53.588;10.176;2023-02-03T04:50:41;5.07;;;3.13;;
17201;SDS011;8717;53.588;10.176;2023-02-03T04:53:09;6.63;;;2.93;;
17201;SDS011;8717;53.588;10.176;2023-02-03T04:55:36;5.30;;;3.13;;
17201;SDS011;8717;53.588;10.176;2023-02-03T04:58:03;5.63;;;3.30;;
17201;SDS011;8717;53.588;10.176;2023-02-03T05:00:30;5.73;;;3.50;;
17201;SDS011;8717;53.588;10.176;2023-02-03T05:02:57;5.53;;;3.70;;
17201;SDS011;8717;53.588;10.176;2023-02-03T05:05:24;10.03;;;3.70;;
17201;SDS011;8717;53.588;10.176;2023-02-03T05:07:53;8.97;;;4.20;;
17201;SDS011;8717;53.588;10.176;2023-02-03T05:10:21;6.53;;;4.10;;
17201;SDS011;8717;53.588;10.176;2023-02-03T05:12:48;9.57;;;4.40;;
17201;SDS011;8717;53.588;10.176;2023-02-03T05:15:14;7.00;;;3.90;;
17201;SDS011;8717;53.588;10.176;2023-02-03T05:17:41;6.57;;;3.97;;
17201;SDS011;8717;53.588;10.176;2023-02-03T05:20:09;6.30;;;3.80;;
17201;SDS011;8717;53.588;10.176;2023-02-03T05:22:36;7.50;;;4.47;;
17201;SDS011;8717;53.588;10.176;2023-02-03T05:25:03;7.00;;;4.20;;
17201;SDS011;8717;53.588;10.176;2023-02-03T05:27:32;6.10;;;4.10;;
17201;SDS011;8717;53.588;10.176;2023-02-03T05:29:58;7.03;;;3.80;;
17201;SDS011;8717;53.588;10.176;2023-02-03T05:32:25;5.93;;;4.03;;
17201;SDS011;8717;53.588;10.176;2023-02-03T05:34:52;11.40;;;4.20;;
17201;SDS011;8717;53.588;10.176;2023-02-03T05:37:19;36.43;;;5.27;;
17201;SDS011;8717;53.588;10.176;2023-02-03T05:39:46;27.27;;;4.93;;
17201;SDS011;8717;53.588;10.176;2023-02-03T05:42:12;11.97;;;4.00;;
17201;SDS011;8717;53.588;10.176;2023-02-03T05:44:40;20.10;;;4.37;;
17201;SDS011;8717;53.588;10.176;2023-02-03T05:47:07;22.63;;;4.70;;
17201;SDS011;8717;53.588;10.176;2023-02-03T05:49:33;11.63;;;3.53;;
17201;SDS011;8717;53.588;10.176;2023-02-03T05:52:00;11.93;;;3.80;;
17201;SDS011;8717;53.588;10.176;2023-02-03T05:54:27;10.27;;;3.63;;
17201;SDS011;8717;53.588;10.176;2023-02-03T05:56:54;7.13;;;3.10;;
17201;SDS011;8717;53.588;10.176;2023-02-03T05:59:21;10.60;;;3.40;;
17201;SDS011;8717;53.588;10.176;2023-02-03T06:01:49;9.83;;;3.60;;
17201;SDS011;8717;53.588;10.176;2023-02-03T06:04:16;6.90;;;3.23;;
17201;SDS011;8717;53.588;10.176;2023-02-03T06:06:43;6.57;;;2.90;;
17201;SDS011;8717;53.588;10.176;2023-02-03T06:09:11;5.50;;;3.10;;
17201;SDS011;8717;53.588;10.176;2023-02-03T06:11:38;6.53;;;3.07;;
17201;SDS011;8717;53.588;10.176;2023-02-03T06:14:06;5.63;;;3.07;;
17201;SDS011;8717;53.588;10.176;2023-02-03T06:16:33;5.23;;;2.83;;
17201;SDS011;8717;53.588;10.176;2023-02-03T06:19:01;5.87;;;3.20;;
17201;SDS011;8717;53.588;10.176;2023-02-03T06:21:28;5.97;;;2.60;;
17201;SDS011;8717;53.588;10.176;2023-02-03T06:23:54;9.97;;;2.60;;
17201;SDS011;8717;53.588;10.176;2023-02-03T06:26:21;6.67;;;2.30;;
17201;SDS011;8717;53.588;10.176;2023-02-03T06:28:49;3.60;;;2.10;;
17201;SDS011;8717;53.588;10.176;2023-02-03T06:31:15;7.27;;;2.60;;
17201;SDS011;8717;53.588;10.176;2023-02-03T06:33:42;5.43;;;2.27;;
17201;SDS011;8717;53.588;10.176;2023-02-03T06:36:10;7.30;;;2.17;;
17201;SDS011;8717;53.588;10.176;2023-02-03T06:38:37;7.57;;;2.30;;
17201;SDS011;8717;53.588;10.176;2023-02-03T06:41:03;4.27;;;2.30;;
17201;SDS011;8717;53.588;10.176;2023-02-03T06:43:30;5.97;;;2.27;;
17201;SDS011;8717;53.588;10.176;2023-02-03T06:45:57;4.63;;;2.57;;
17201;SDS011;8717;53.588;10.176;2023-02-03T06:48:24;5.17;;;2.53;;
17201;SDS011;8717;53.588;10.176;2023-02-03T06:50:51;7.17;;;2.80;;
17201;SDS011;8717;53.588;10.176;2023-02-03T06:53:19;5.70;;;2.50;;
17201;SDS011;8717;53.588;10.176;2023-02-03T06:55:46;4.37;;;2.27;;
17201;SDS011;8717;53.588;10.176;2023-02-03T06:58:13;8.20;;;2.60;;
17201;SDS011;8717;53.588;10.176;2023-02-03T07:00:42;6.07;;;2.53;;
17201;SDS011;8717;53.588;10.176;2023-02-03T07:03:09;5.87;;;2.70;;
17201;SDS011;8717;53.588;10.176;2023-02-03T07:05:39;8.80;;;2.80;;
17201;SDS011;8717;53.588;10.176;2023-02-03T07:08:05;8.40;;;2.90;;
17201;SDS011;8717;53.588;10.176;2023-02-03T07:10:33;8.23;;;2.67;;
17201;SDS011;8717;53.588;10.176;2023-02-03T07:13:01;9.27;;;3.20;;
17201;SDS011;8717;53.588;10.176;2023-02-03T07:15:28;7.50;;;2.90;;
17201;SDS011;8717;53.588;10.176;2023-02-03T07:17:55;8.13;;;2.77;;
17201;SDS011;8717;53.588;10.176;2023-02-03T07:20:22;10.03;;;2.57;;
17201;SDS011;8717;53.588;10.176;2023-02-03T07:22:52;7.03;;;2.33;;
17201;SDS011;8717;53.588;10.176;2023-02-03T07:25:23;8.80;;;2.60;;
17201;SDS011;8717;53.588;10.176;2023-02-03T07:27:52;9.10;;;2.73;;
17201;SDS011;8717;53.588;10.176;2023-02-03T07:30:19;7.03;;;2.57;;
17201;SDS011;8717;53.588;10.176;2023-02-03T07:32:46;9.07;;;2.40;;
17201;SDS011;8717;53.588;10.176;2023-02-03T07:35:13;6.93;;;1.93;;
17201;SDS011;8717;53.588;10.176;2023-02-03T07:37:40;4.80;;;1.70;;
17201;SDS011;8717;53.588;10.176;2023-02-03T07:40:08;5.87;;;1.90;;
17201;SDS011;8717;53.588;10.176;2023-02-03T07:42:37;3.67;;;2.20;;
17201;SDS011;8717;53.588;10.176;2023-02-03T07:45:07;7.30;;;2.20;;
17201;SDS011;8717;53.588;10.176;2023-02-03T07:47:38;8.93;;;2.67;;
17201;SDS011;8717;53.588;10.176;2023-02-03T07:50:05;7.83;;;2.33;;
17201;SDS011;8717;53.588;10.176;2023-02-03T07:52:32;8.07;;;2.50;;
17201;SDS011;8717;53.588;10.176;2023-02-03T07:54:59;10.03;;;2.10;;
17201;SDS011;8717;53.588;10.176;2023-02-03T07:57:25;8.33;;;1.87;;
17201;SDS011;8717;53.588;10.176;2023-02-03T07:59:52;6.93;;;2.17;;
17201;SDS011;8717;53.588;10.176;2023-02-03T08:02:21;9.27;;;2.40;;
17201;SDS011;8717;53.588;10.176;2023-02-03T08:04:48;7.47;;;2.17;;
17201;SDS011;8717;53.588;10.176;2023-02-03T08:07:14;5.00;;;1.70;;
17201;SDS011;8717;53.588;10.176;2023-02-03T08:09:41;10.97;;;2.27;;
17201;SDS011;8717;53.588;10.176;2023-02-03T08:12:08;7.87;;;2.37;;
17201;SDS011;8717;53.588;10.176;2023-02-03T08:14:34;11.77;;;2.37;;
17201;SDS011;8717;53.588;10.176;2023-02-03T08:17:01;8.63;;;1.90;;
17201;SDS011;8717;53.588;10.176;2023-02-03T08:19:29;9.60;;;2.13;;
17201;SDS011;8717;53.588;10.176;2023-02-03T08:21:59;11.10;;;2.07;;
17201;SDS011;8717;53.588;10.176;2023-02-03T08:24:26;7.97;;;1.57;;
17201;SDS011;8717;53.588;10.176;2023-02-03T08:26:53;10.90;;;2.37;;
17201;SDS011;8717;53.588;10.176;2023-02-03T08:29:19;8.33;;;2.20;;
17201;SDS011;8717;53.588;10.176;2023-02-03T08:31:46;12.20;;;2.97;;
17201;SDS011;8717;53.588;10.176;2023-02-03T08:34:13;13.73;;;3.30;;
17201;SDS011;8717;53.588;10.176;2023-02-03T08:36:41;14.23;;;3.47;;
17201;SDS011;8717;53.588;10.176;2023-02-03T08:39:08;13.10;;;3.47;;
17201;SDS011;8717;53.588;10.176;2023-02-03T08:41:35;19.23;;;4.20;;
17201;SDS011;8717;53.588;10.176;2023-02-03T08:44:05;18.60;;;3.90;;
17201;SDS011;8717;53.588;10.176;2023-02-03T08:46:31;18.30;;;3.63;;
17201;SDS011;8717;53.588;10.176;2023-02-03T08:48:59;18.83;;;4.20;;
17201;SDS011;8717;53.588;10.176;2023-02-03T08:51:28;18.03;;;4.47;;
17201;SDS011;8717;53.588;10.176;2023-02-03T08:53:56;20.90;;;4.77;;
17201;SDS011;8717;53.588;10.176;2023-02-03T08:56:22;23.93;;;5.10;;
17201;SDS011;8717;53.588;10.176;2023-02-03T08:58:51;24.10;;;5.70;;
17201;SDS011;8717;53.588;10.176;2023-02-03T09:01:18;25.93;;;6.93;;
17201;SDS011;8717;53.588;10.176;2023-02-03T09:03:45;27.43;;;5.47;;
17201;SDS011;8717;53.588;10.176;2023-02-03T09:06:12;25.50;;;5.97;;
17201;SDS011;8717;53.588;10.176;2023-02-03T09:08:40;29.53;;;6.30;;
17201;SDS011;8717;53.588;10.176;2023-02-03T09:11:09;31.17;;;6.33;;
17201;SDS011;8717;53.588;10.176;2023-02-03T09:13:37;26.07;;;5.60;;
17201;SDS011;8717;53.588;10.176;2023-02-03T09:16:04;21.33;;;5.47;;
17201;SDS011;8717;53.588;10.176;2023-02-03T09:18:31;23.87;;;5.90;;
17201;SDS011;8717;53.588;10.176;2023-02-03T09:21:02;25.13;;;6.93;;
17201;SDS011;8717;53.588;10.176;2023-02-03T09:23:29;30.40;;;5.83;;
17201;SDS011;8717;53.588;10.176;2023-02-03T09:26:00;35.27;;;7.00;;
17201;SDS011;8717;53.588;10.176;2023-02-03T09:28:29;35.23;;;6.80;;
17201;SDS011;8717;53.588;10.176;2023-02-03T09:30:58;27.83;;;6.10;;
17201;SDS011;8717;53.588;10.176;2023-02-03T09:33:26;28.67;;;5.73;;
17201;SDS011;8717;53.588;10.176;2023-02-03T09:35:52;29.77;;;6.87;;
17201;SDS011;8717;53.588;10.176;2023-02-03T09:38:19;34.23;;;7.10;;
17201;SDS011;8717;53.588;10.176;2023-02-03T09:40:48;28.53;;;6.63;;
17201;SDS011;8717;53.588;10.176;2023-02-03T09:43:22;27.43;;;6.63;;
17201;SDS011;8717;53.588;10.176;2023-02-03T09:46:04;31.60;;;5.97;;
17201;SDS011;8717;53.588;10.176;2023-02-03T09:48:34;27.63;;;6.80;;
17201;SDS011;8717;53.588;10.176;2023-02-03T09:51:08;30.37;;;7.27;;
17201;SDS011;8717;53.588;10.176;2023-02-03T09:53:44;38.93;;;8.73;;
17201;SDS011;8717;53.588;10.176;2023-02-03T09:56:19;32.53;;;7.30;;
17201;SDS011;8717;53.588;10.176;2023-02-03T09:58:52;35.33;;;7.37;;
17201;SDS011;8717;53.588;10.176;2023-02-03T10:01:19;34.67;;;7.90;;
17201;SDS011;8717;53.588;10.176;2023-02-03T10:03:48;33.37;;;7.00;;
17201;SDS011;8717;53.588;10.176;2023-02-03T10:06:22;35.83;;;7.63;;
17201;SDS011;8717;53.588;10.176;2023-02-03T10:09:06;35.13;;;8.00;;
17201;SDS011;8717;53.588;10.176;2023-02-03T10:12:08;37.37;;;7.00;;
17201;SDS011;8717;53.588;10.176;2023-02-03T10:14:55;36.40;;;8.77;;
17201;SDS011;8717;53.588;10.176;2023-02-03T10:17:32;33.40;;;8.37;;
17201;SDS011;8717;53.588;10.176;2023-02-03T10:20:05;36.83;;;8.47;;
17201;SDS011;8717;53.588;10.176;2023-02-03T10:22:39;41.73;;;8.27;;
17201;SDS011;8717;53.588;10.176;2023-02-03T10:25:11;37.17;;;8.27;;
17201;SDS011;8717;53.588;10.176;2023-02-03T10:27:44;36.40;;;8.57;;
17201;SDS011;8717;53.588;10.176;2023-02-03T10:30:18;34.70;;;8.93;;
17201;SDS011;8717;53.588;10.176;2023-02-03T10:32:46;35.43;;;8.43;;
17201;SDS011;8717;53.588;10.176;2023-02-03T10:35:17;33.47;;;8.00;;
17201;SDS011;8717;53.588;10.176;2023-02-03T10:37:46;38.30;;;8.13;;
17201;SDS011;8717;53.588;10.176;2023-02-03T10:40:15;38.20;;;7.13;;
17201;SDS011;8717;53.588;10.176;2023-02-03T10:42:46;35.37;;;8.37;;
17201;SDS011;8717;53.588;10.176;2023-02-03T10:45:35;43.80;;;8.87;;
17201;SDS011;8717;53.588;10.176;2023-02-03T10:48:03;40.53;;;8.50;;
17201;SDS011;8717;53.588;10.176;2023-02-03T10:50:34;34.07;;;8.83;;
17201;SDS011;8717;53.588;10.176;2023-02-03T10:53:18;36.43;;;7.87;;
17201;SDS011;8717;53.588;10.176;2023-02-03T10:55:47;40.33;;;8.20;;
17201;SDS011;8717;53.588;10.176;2023-02-03T10:58:16;35.77;;;8.10;;
17201;SDS011;8717;53.588;10.176;2023-02-03T11:00:54;36.87;;;8.03;;
17201;SDS011;8717;53.588;10.176;2023-02-03T11:03:24;39.63;;;8.87;;
17201;SDS011;8717;53.588;10.176;2023-02-03T11:06:04;34.10;;;7.60;;
17201;SDS011;8717;53.588;10.176;2023-02-03T11:08:33;32.10;;;7.33;;
17201;SDS011;8717;53.588;10.176;2023-02-03T11:11:04;40.10;;;8.00;;
17201;SDS011;8717;53.588;10.176;2023-02-03T11:13:32;37.07;;;7.90;;
17201;SDS011;8717;53.588;10.176;2023-02-03T11:16:02;31.90;;;7.13;;
17201;SDS011;8717;53.588;10.176;2023-02-03T11:18:33;30.67;;;8.47;;
17201;SDS011;8717;53.588;10.176;2023-02-03T11:21:05;35.57;;;7.77;;
17201;SDS011;8717;53.588;10.176;2023-02-03T11:23:34;41.00;;;8.83;;
17201;SDS011;8717;53.588;10.176;2023-02-03T11:26:08;38.00;;;8.73;;
17201;SDS011;8717;53.588;10.176;2023-02-03T11:28:40;39.73;;;8.90;;
17201;SDS011;8717;53.588;10.176;2023-02-03T11:31:15;34.83;;;8.27;;
17201;SDS011;8717;53.588;10.176;2023-02-03T11:33:47;44.47;;;8.40;;
17201;SDS011;8717;53.588;10.176;2023-02-03T11:36:21;32.63;;;7.47;;
17201;SDS011;8717;53.588;10.176;2023-02-03T11:38:50;39.70;;;8.20;;
17201;SDS011;8717;53.588;10.176;2023-02-03T11:41:17;36.10;;;7.60;;
17201;SDS011;8717;53.588;10.176;2023-02-03T11:43:46;29.93;;;7.07;;
17201;SDS011;8717;53.588;10.176;2023-02-03T11:46:14;39.23;;;7.57;;
17201;SDS011;8717;53.588;10.176;2023-02-03T11:48:47;31.27;;;7.20;;
17201;SDS011;8717;53.588;10.176;2023-02-03T11:51:29;34.03;;;7.73;;
17201;SDS011;8717;53.588;10.176;2023-02-03T11:54:05;33.27;;;7.77;;
17201;SDS011;8717;53.588;10.176;2023-02-03T11:56:56;32.93;;;7.17;;
17201;SDS011;8717;53.588;10.176;2023-02-03T11:59:53;32.93;;;7.90;;
17201;SDS011;8717;53.588;10.176;2023-02-03T12:02:46;30.53;;;6.80;;
17201;SDS011;8717;53.588;10.176;2023-02-03T12:05:43;29.33;;;6.73;;
17201;SDS011;8717;53.588;10.176;2023-02-03T12:08:24;27.17;;;7.30;;
17201;SDS011;8717;53.588;10.176;2023-02-03T12:11:04;27.77;;;6.97;;
17201;SDS011;8717;53.588;10.176;2023-02-03T12:13:47;31.00;;;6.90;;
17201;SDS011;8717;53.588;10.176;2023-02-03T12:16:32;26.90;;;6.67;;
17201;SDS011;8717;53.588;10.176;2023-02-03T12:19:17;34.33;;;7.73;;
17201;SDS011;8717;53.588;10.176;2023-02-03T12:21:52;32.83;;;7.90;;
17201;SDS011;8717;53.588;10.176;2023-02-03T12:24:28;31.47;;;6.47;;
17201;SDS011;8717;53.588;10.176;2023-02-03T12:27:06;31.33;;;6.97;;
17201;SDS011;8717;53.588;10.176;2023-02-03T12:29:41;29.40;;;6.53;;
17201;SDS011;8717;53.588;10.176;2023-02-03T12:32:11;23.23;;;6.47;;
17201;SDS011;8717;53.588;10.176;2023-02-03T12:34:46;37.20;;;7.07;;
17201;SDS011;8717;53.588;10.176;2023-02-03T12:37:18;32.87;;;7.43;;
17201;SDS011;8717;53.588;10.176;2023-02-03T12:39:49;30.57;;;6.77;;
17201;SDS011;8717;53.588;10.176;2023-02-03T12:42:18;22.80;;;6.97;;
17201;SDS011;8717;53.588;10.176;2023-02-03T12:44:47;28.93;;;7.50;;
17201;SDS011;8717;53.588;10.176;2023-02-03T12:47:21;28.70;;;7.43;;
17201;SDS011;8717;53.588;10.176;2023-02-03T12:49:55;26.97;;;7.10;;
17201;SDS011;8717;53.588;10.176;2023-02-03T12:52:25;24.63;;;5.67;;
17201;SDS011;8717;53.588;10.176;2023-02-03T12:54:59;33.13;;;7.30;;
17201;SDS011;8717;53.588;10.176;2023-02-03T12:57:32;26.43;;;6.57;;
17201;SDS011;8717;53.588;10.176;2023-02-03T13:00:14;31.23;;;7.83;;
17201;SDS011;8717;53.588;10.176;2023-02-03T13:02:50;21.80;;;6.40;;
17201;SDS011;8717;53.588;10.176;2023-02-03T13:05:27;25.80;;;5.63;;
17201;SDS011;8717;53.588;10.176;2023-02-03T13:08:00;23.27;;;6.50;;
17201;SDS011;8717;53.588;10.176;2023-02-03T13:10:37;27.13;;;6.43;;
17201;SDS011;8717;53.588;10.176;2023-02-03T13:13:08;24.30;;;5.07;;
17201;SDS011;8717;53.588;10.176;2023-02-03T13:15:39;21.83;;;5.93;;
17201;SDS011;8717;53.588;10.176;2023-02-03T13:18:12;26.73;;;5.93;;
17201;SDS011;8717;53.588;10.176;2023-02-03T13:20:51;20.03;;;5.63;;
17201;SDS011;8717;53.588;10.176;2023-02-03T13:23:19;27.83;;;6.30;;
17201;SDS011;8717;53.588;10.176;2023-02-03T13:28:42;29.23;;;6.27;;
17201;SDS011;8717;53.588;10.176;2023-02-03T13:31:30;25.10;;;6.27;;
17201;SDS011;8717;53.588;10.176;2023-02-03T13:34:15;31.50;;;7.53;;
17201;SDS011;8717;53.588;10.176;2023-02-03T13:42:53;25.67;;;5.63;;
17201;SDS011;8717;53.588;10.176;2023-02-03T13:45:24;33.93;;;7.33;;
17201;SDS011;8717;53.588;10.176;2023-02-03T13:47:54;27.17;;;5.43;;
17201;SDS011;8717;53.588;10.176;2023-02-03T13:50:23;20.17;;;5.23;;
17201;SDS011;8717;53.588;10.176;2023-02-03T13:52:54;24.00;;;5.90;;
17201;SDS011;8717;53.588;10.176;2023-02-03T13:55:25;30.87;;;7.60;;
17201;SDS011;8717;53.588;10.176;2023-02-03T13:57:58;28.23;;;6.50;;
17201;SDS011;8717;53.588;10.176;2023-02-03T14:03:44;21.17;;;5.87;;
17201;SDS011;8717;53.588;10.176;2023-02-03T14:09:38;27.23;;;6.87;;
17201;SDS011;8717;53.588;10.176;2023-02-03T14:12:20;27.97;;;6.63;;
17201;SDS011;8717;53.588;10.176;2023-02-03T14:15:16;25.93;;;6.43;;
17201;SDS011;8717;53.588;10.176;2023-02-03T14:17:56;29.53;;;6.17;;
17201;SDS011;8717;53.588;10.176;2023-02-03T14:20:41;32.87;;;6.33;;
17201;SDS011;8717;53.588;10.176;2023-02-03T14:23:17;29.80;;;6.33;;
17201;SDS011;8717;53.588;10.176;2023-02-03T14:25:50;31.33;;;5.90;;
17201;SDS011;8717;53.588;10.176;2023-02-03T14:28:20;29.40;;;7.20;;
17201;SDS011;8717;53.588;10.176;2023-02-03T14:33:51;30.53;;;6.33;;
17201;SDS011;8717;53.588;10.176;2023-02-03T14:36:49;29.57;;;6.83;;
17201;SDS011;8717;53.588;10.176;2023-02-03T14:39:26;29.50;;;6.90;;
17201;SDS011;8717;53.588;10.176;2023-02-03T14:42:10;26.73;;;6.63;;
17201;SDS011;8717;53.588;10.176;2023-02-03T14:44:50;28.57;;;6.50;;
17201;SDS011;8717;53.588;10.176;2023-02-03T14:47:33;31.40;;;6.73;;
17201;SDS011;8717;53.588;10.176;2023-02-03T14:53:03;25.17;;;6.80;;
17201;SDS011;8717;53.588;10.176;2023-02-03T14:55:45;27.63;;;7.37;;
17201;SDS011;8717;53.588;10.176;2023-02-03T14:58:25;30.70;;;7.80;;
17201;SDS011;8717;53.588;10.176;2023-02-03T15:00:55;26.47;;;6.80;;
17201;SDS011;8717;53.588;10.176;2023-02-03T15:03:26;38.30;;;7.37;;
17201;SDS011;8717;53.588;10.176;2023-02-03T15:05:55;30.57;;;7.07;;
17201;SDS011;8717;53.588;10.176;2023-02-03T15:08:30;27.90;;;7.20;;
17201;SDS011;8717;53.588;10.176;2023-02-03T15:11:14;28.27;;;6.53;;
17201;SDS011;8717;53.588;10.176;2023-02-03T15:13:47;37.97;;;8.90;;
17201;SDS011;8717;53.588;10.176;2023-02-03T15:16:15;34.17;;;7.30;;
17201;SDS011;8717;53.588;10.176;2023-02-03T15:18:45;27.40;;;6.83;;
17201;SDS011;8717;53.588;10.176;2023-02-03T15:21:18;34.07;;;7.60;;
17201;SDS011;8717;53.588;10.176;2023-02-03T15:23:46;38.43;;;7.57;;
17201;SDS011;8717;53.588;10.176;2023-02-03T15:26:16;30.37;;;6.87;;
17201;SDS011;8717;53.588;10.176;2023-02-03T15:28:53;32.67;;;6.97;;
17201;SDS011;8717;53.588;10.176;2023-02-03T15:31:22;30.17;;;6.77;;